createdAt,value
2019-01-09T00:00:10.353Z,70.84
2019-01-09T00:02:39.032Z,71.39
2019-01-09T00:05:07.771Z,71.15
2019-01-09T00:07:36.398Z,70.95
2019-01-09T00:10:05.777Z,70.12
2019-01-09T00:12:34.410Z,69.53
2019-01-09T00:15:04.424Z,69.71
2019-01-09T00:17:33.397Z,69.19
2019-01-09T00:20:02.046Z,68.68
2019-01-09T00:22:30.682Z,68.69
2019-01-09T00:24:59.352Z,69.09
2019-01-09T00:27:28.003Z,69.31
2019-01-09T00:29:56.625Z,69.11
2019-01-09T00:32:25.301Z,68.87
2019-01-09T00:34:53.958Z,68.47
2019-01-09T00:37:22.606Z,68.40
2019-01-09T00:39:51.284Z,67.96
2019-01-09T00:42:20.019Z,67.81
2019-01-09T00:44:48.641Z,66.25
2019-01-09T00:47:17.516Z,66.55
2019-01-09T00:49:46.155Z,66.60
2019-01-09T00:52:14.791Z,65.74
2019-01-09T00:54:43.504Z,65.67
2019-01-09T00:57:12.141Z,65.35
2019-01-09T00:59:40.789Z,65.32
2019-01-09T01:02:31.548Z,66.08
2019-01-09T01:05:22.471Z,66.41
2019-01-09T01:08:19.505Z,66.48
2019-01-09T01:11:15.396Z,66.67
2019-01-09T01:13:56.209Z,66.86
2019-01-09T01:16:46.053Z,67.19
2019-01-09T01:19:26.504Z,66.72
2019-01-09T01:21:58.381Z,67.15
2019-01-09T01:24:38.278Z,67.03
2019-01-09T01:27:25.099Z,67.29
2019-01-09T01:30:31.833Z,67.17
2019-01-09T01:33:12.304Z,67.16
2019-01-09T01:35:43.838Z,67.57
2019-01-09T01:38:34.424Z,67.62
2019-01-09T01:41:40.923Z,68.30
2019-01-09T01:44:12.669Z,68.28
2019-01-09T01:47:02.244Z,67.66
2019-01-09T01:49:36.977Z,68.09
2019-01-09T01:52:25.350Z,68.62
2019-01-09T01:55:08.945Z,68.46
2019-01-09T01:58:01.779Z,68.68
2019-01-09T02:00:36.135Z,69.17
2019-01-09T02:03:32.160Z,70.43
2019-01-09T02:06:30.634Z,71.17
2019-01-09T02:09:35.575Z,72.19
2019-01-09T02:12:25.065Z,72.10
2019-01-09T02:15:21.186Z,72.71
2019-01-09T02:17:55.558Z,73.35
2019-01-09T02:20:36.355Z,74.05
2019-01-09T02:23:25.585Z,74.12
2019-01-09T02:25:57.250Z,74.92
2019-01-09T02:28:45.255Z,75.60
2019-01-09T02:31:35.094Z,76.60
2019-01-09T02:34:03.722Z,76.86
2019-01-09T02:36:32.274Z,77.84
2019-01-09T02:39:01.045Z,79.12
2019-01-09T02:41:29.683Z,79.83
2019-01-09T02:43:58.232Z,81.24
2019-01-09T02:46:26.836Z,81.48
2019-01-09T02:48:55.400Z,82.12
2019-01-09T02:51:24.034Z,82.62
2019-01-09T02:53:52.724Z,82.59
2019-01-09T02:56:21.288Z,83.16
2019-01-09T02:58:49.855Z,83.31
2019-01-09T03:01:18.525Z,84.92
2019-01-09T03:03:47.085Z,86.07
2019-01-09T03:06:22.912Z,86.77
2019-01-09T03:08:46.358Z,87.35
2019-01-09T03:11:18.105Z,87.49
2019-01-09T03:13:46.875Z,88.26
2019-01-09T03:16:15.427Z,88.35
2019-01-09T03:18:44.065Z,88.31
2019-01-09T03:21:12.703Z,88.68
2019-01-09T03:23:41.398Z,88.59
2019-01-09T03:26:10.033Z,87.81
2019-01-09T03:28:38.671Z,87.93
2019-01-09T03:31:07.352Z,87.00
2019-01-09T03:33:35.913Z,87.34
2019-01-09T03:36:04.545Z,87.65
2019-01-09T03:38:33.213Z,87.68
2019-01-09T03:41:01.784Z,87.26
2019-01-09T03:43:30.415Z,87.90
2019-01-09T03:45:59.090Z,87.73
2019-01-09T03:48:27.708Z,87.79
2019-01-09T03:50:56.200Z,88.75
2019-01-09T03:53:25.112Z,89.03
2019-01-09T03:55:53.672Z,88.98
2019-01-09T03:58:22.300Z,89.11
2019-01-09T04:00:50.969Z,89.07
2019-01-09T04:03:19.524Z,89.60
2019-01-09T04:05:48.090Z,90.17
2019-01-09T04:08:17.005Z,89.98
2019-01-09T04:10:45.629Z,89.97
2019-01-09T04:13:14.274Z,90.16
2019-01-09T04:15:43.021Z,90.11
2019-01-09T04:18:11.593Z,89.61
2019-01-09T04:20:40.211Z,89.03
2019-01-09T04:23:08.871Z,88.90
2019-01-09T04:25:37.377Z,89.09
2019-01-09T04:28:06.001Z,89.00
2019-01-09T04:30:34.641Z,88.78
2019-01-09T04:33:03.513Z,88.83
2019-01-09T04:35:32.091Z,88.22
2019-01-09T04:38:00.736Z,87.92
2019-01-09T04:40:29.267Z,88.19
2019-01-09T04:42:57.908Z,87.65
2019-01-09T04:45:26.547Z,87.07
2019-01-09T04:47:55.357Z,86.94
2019-01-09T04:50:23.848Z,86.78
2019-01-09T04:52:52.416Z,86.49
2019-01-09T04:55:21.087Z,86.60
2019-01-09T04:57:49.649Z,86.03
2019-01-09T05:00:18.217Z,85.82
2019-01-09T05:02:47.048Z,85.12
2019-01-09T05:05:15.681Z,85.76
2019-01-09T05:07:44.251Z,86.05
2019-01-09T05:10:12.844Z,85.57
2019-01-09T05:12:41.407Z,85.64
2019-01-09T05:15:10.029Z,85.38
2019-01-09T05:17:38.635Z,85.75
2019-01-09T05:20:07.286Z,86.66
2019-01-09T05:22:35.916Z,86.88
2019-01-09T05:25:04.698Z,86.78
2019-01-09T05:27:33.256Z,87.59
2019-01-09T05:30:01.892Z,88.29
2019-01-09T05:32:30.573Z,88.28
2019-01-09T05:34:59.062Z,88.66
2019-01-09T05:37:27.629Z,88.79
2019-01-09T05:39:56.304Z,89.20
2019-01-09T05:42:24.925Z,89.49
2019-01-09T05:44:53.488Z,89.73
2019-01-09T05:47:22.172Z,89.18
2019-01-09T05:49:50.813Z,89.92
2019-01-09T05:52:19.445Z,89.84
2019-01-09T05:54:48.068Z,90.08
2019-01-09T05:57:16.714Z,89.94
2019-01-09T05:59:45.291Z,90.34
2019-01-09T06:02:13.974Z,90.84
2019-01-09T06:04:42.614Z,90.78
2019-01-09T06:07:18.296Z,91.19
2019-01-09T06:09:41.591Z,91.09
2019-01-09T06:12:10.164Z,91.21
2019-01-09T06:14:38.781Z,91.27
2019-01-09T06:17:07.437Z,91.01
2019-01-09T06:19:36.046Z,91.44
2019-01-09T06:22:04.623Z,91.07
2019-01-09T06:24:33.296Z,89.50
2019-01-09T06:27:01.859Z,87.85
2019-01-09T06:29:30.503Z,85.88
2019-01-09T06:31:59.306Z,82.73
2019-01-09T06:34:27.863Z,81.66
2019-01-09T06:36:56.457Z,79.99
2019-01-09T06:39:25.127Z,78.38
2019-01-09T06:41:53.819Z,76.08
2019-01-09T06:44:22.845Z,74.75
2019-01-09T06:46:51.815Z,72.65
2019-01-09T06:49:20.429Z,70.98
2019-01-09T06:51:48.998Z,69.57
2019-01-09T06:54:17.807Z,69.57
2019-01-09T06:56:46.413Z,68.40
2019-01-09T06:59:15.042Z,66.67
2019-01-09T07:01:43.717Z,65.80
2019-01-09T07:04:12.197Z,64.91
2019-01-09T07:06:40.765Z,64.08
2019-01-09T07:09:09.692Z,63.07
2019-01-09T07:11:38.312Z,61.84
2019-01-09T07:14:06.904Z,61.20
2019-01-09T07:16:35.576Z,61.02
2019-01-09T07:19:04.205Z,62.39
2019-01-09T07:21:32.834Z,62.53
2019-01-09T07:24:01.713Z,63.01
2019-01-09T07:26:30.363Z,62.92
2019-01-09T07:28:58.914Z,60.14
2019-01-09T07:31:27.758Z,58.28
2019-01-09T07:33:56.409Z,58.56
2019-01-09T07:36:24.980Z,60.19
2019-01-09T07:38:53.824Z,59.30
2019-01-09T07:41:22.391Z,60.25
2019-01-09T07:43:51.007Z,57.99
2019-01-09T07:46:19.690Z,57.99
2019-01-09T07:48:48.246Z,59.56
2019-01-09T07:51:16.877Z,61.21
2019-01-09T07:53:45.726Z,62.00
2019-01-09T07:56:14.383Z,62.59
2019-01-09T07:58:42.932Z,63.59
2019-01-09T08:01:11.609Z,64.45
2019-01-09T08:03:40.272Z,66.54
2019-01-09T08:06:08.902Z,66.76
2019-01-09T08:08:37.551Z,66.63
2019-01-09T08:11:06.150Z,67.43
2019-01-09T08:13:34.787Z,69.99
2019-01-09T08:16:03.485Z,71.33
2019-01-09T08:18:32.282Z,71.88
2019-01-09T08:21:05.416Z,72.30
2019-01-09T08:23:38.033Z,72.62
2019-01-09T08:26:06.717Z,73.17
2019-01-09T08:28:35.214Z,74.16
2019-01-09T08:31:03.958Z,73.51
2019-01-09T08:33:32.888Z,74.14
2019-01-09T08:36:01.520Z,73.68
2019-01-09T08:38:30.160Z,73.01
2019-01-09T08:40:59.027Z,72.47
2019-01-09T08:43:27.590Z,72.75
2019-01-09T08:45:56.150Z,72.68
2019-01-09T08:48:24.813Z,72.44
2019-01-09T08:50:53.442Z,72.71
2019-01-09T08:53:21.992Z,71.91
2019-01-09T08:55:50.590Z,71.91
2019-01-09T08:58:19.232Z,71.84
2019-01-09T09:00:47.867Z,72.30
2019-01-09T09:03:16.460Z,71.13
2019-01-09T09:05:45.098Z,71.13
2019-01-09T09:08:14.035Z,70.42
2019-01-09T09:10:42.963Z,71.70
2019-01-09T09:13:14.508Z,71.39
2019-01-09T09:15:43.135Z,71.39
2019-01-09T09:18:11.803Z,69.98
2019-01-09T09:20:40.429Z,70.49
2019-01-09T09:23:09.075Z,71.65
2019-01-09T09:25:37.672Z,71.65
2019-01-09T09:28:06.253Z,71.57
2019-01-09T09:30:34.815Z,71.04
2019-01-09T09:33:03.506Z,71.28
2019-01-09T09:35:32.145Z,71.40
2019-01-09T09:38:00.630Z,71.40
2019-01-09T09:40:29.305Z,72.02
2019-01-09T09:42:57.941Z,71.29
2019-01-09T09:45:32.496Z,71.39
2019-01-09T09:48:01.103Z,69.90
2019-01-09T09:50:29.668Z,70.24
2019-01-09T09:52:58.238Z,70.21
2019-01-09T09:55:26.870Z,70.21
2019-01-09T09:57:55.528Z,69.69
2019-01-09T10:00:24.148Z,69.75
2019-01-09T10:02:52.906Z,68.78
2019-01-09T10:05:21.534Z,69.23
2019-01-09T10:07:50.172Z,67.78
2019-01-09T10:10:18.831Z,67.11
2019-01-09T10:12:47.477Z,67.19
2019-01-09T10:15:17.219Z,66.73
2019-01-09T10:17:45.894Z,67.08
2019-01-09T10:20:16.432Z,68.19
2019-01-09T10:22:46.170Z,67.10
2019-01-09T10:25:14.778Z,67.47
2019-01-09T10:27:43.420Z,68.25
2019-01-09T10:30:17.436Z,68.06
2019-01-09T10:32:46.159Z,67.76
2019-01-09T10:35:15.096Z,67.70
2019-01-09T10:37:44.934Z,67.55
2019-01-09T10:40:16.169Z,67.85
2019-01-09T10:42:44.796Z,67.49
2019-01-09T10:45:16.204Z,67.90
2019-01-09T10:47:45.136Z,68.50
2019-01-09T10:50:15.900Z,68.37
2019-01-09T10:52:44.561Z,69.10
2019-01-09T10:55:15.687Z,68.56
2019-01-09T10:57:44.308Z,68.77
2019-01-09T11:00:19.068Z,68.28
2019-01-09T11:02:47.759Z,68.22
2019-01-09T11:05:16.814Z,68.38
2019-01-09T11:07:45.524Z,68.77
2019-01-09T11:10:16.981Z,69.36
2019-01-09T11:12:54.566Z,69.95
2019-01-09T11:15:23.237Z,70.45
2019-01-09T11:17:51.865Z,70.68
2019-01-09T11:20:21.598Z,71.21
2019-01-09T11:22:50.462Z,71.80
2019-01-09T11:25:24.648Z,72.24
2019-01-09T11:27:53.497Z,71.07
2019-01-09T11:30:22.178Z,71.15
2019-01-09T11:32:50.738Z,70.66
2019-01-09T11:35:21.773Z,70.69
2019-01-09T11:37:50.451Z,71.00
2019-01-09T11:40:20.285Z,70.73
2019-01-09T11:42:48.782Z,71.01
2019-01-09T11:45:19.761Z,70.62
2019-01-09T11:47:48.791Z,70.19
2019-01-09T11:50:18.016Z,68.88
2019-01-09T11:52:47.007Z,70.98
2019-01-09T11:55:16.247Z,71.82
2019-01-09T11:57:44.817Z,72.67
2019-01-09T12:00:24.791Z,73.64
2019-01-09T12:02:53.429Z,73.80
2019-01-09T12:05:22.089Z,75.25
2019-01-09T12:07:50.865Z,76.87
2019-01-09T12:10:29.490Z,78.26
2019-01-09T12:12:51.945Z,79.27
2019-01-09T12:15:21.039Z,80.54
2019-01-09T12:17:49.774Z,81.72
2019-01-09T12:20:20.070Z,82.80
2019-01-09T12:22:49.149Z,83.84
2019-01-09T12:25:18.092Z,86.88
2019-01-09T12:27:46.927Z,86.88
2019-01-09T12:30:21.284Z,87.53
2019-01-09T12:32:49.854Z,88.42
2019-01-09T12:35:18.486Z,89.75
2019-01-09T12:37:47.406Z,91.22
2019-01-09T12:40:30.563Z,92.03
2019-01-09T12:42:46.592Z,92.03
2019-01-09T12:45:18.334Z,92.16
2019-01-09T12:47:47.095Z,92.47
2019-01-09T12:50:21.143Z,92.67
2019-01-09T12:52:49.744Z,94.13
2019-01-09T12:55:18.369Z,94.00
2019-01-09T12:57:46.994Z,94.00
2019-01-09T13:00:24.346Z,93.37
2019-01-09T13:02:53.073Z,93.95
2019-01-09T13:05:22.199Z,93.37
2019-01-09T13:07:50.894Z,93.37
2019-01-09T13:10:19.538Z,93.25
2019-01-09T13:12:48.172Z,92.26
2019-01-09T13:15:16.841Z,92.26
2019-01-09T13:17:45.478Z,92.71
2019-01-09T13:20:15.712Z,92.95
2019-01-09T13:22:44.316Z,92.95
2019-01-09T13:25:15.293Z,93.43
2019-01-09T13:27:44.543Z,94.10
2019-01-09T13:30:19.042Z,94.37
2019-01-09T13:32:47.690Z,93.88
2019-01-09T13:35:17.228Z,93.88
2019-01-09T13:37:46.008Z,94.80
2019-01-09T13:40:16.439Z,95.29
2019-01-09T13:42:45.074Z,94.64
2019-01-09T13:45:16.338Z,94.89
2019-01-09T13:47:45.161Z,94.64
2019-01-09T13:50:15.704Z,93.89
2019-01-09T13:52:44.563Z,93.39
2019-01-09T13:55:14.898Z,93.24
2019-01-09T13:57:43.541Z,94.18
2019-01-09T14:00:17.491Z,95.27
2019-01-09T14:02:46.126Z,96.04
2019-01-09T14:05:14.960Z,96.33
2019-01-09T14:07:43.637Z,95.93
2019-01-09T14:10:14.757Z,96.47
2019-01-09T14:12:43.396Z,96.81
2019-01-09T14:15:15.376Z,97.31
2019-01-09T14:17:43.945Z,97.91
2019-01-09T14:20:13.383Z,98.66
2019-01-09T14:22:42.092Z,98.79
2019-01-09T14:25:12.640Z,100.00
2019-01-09T14:27:41.274Z,99.80
2019-01-09T14:30:18.653Z,100.00
2019-01-09T14:32:47.277Z,100.00
2019-01-09T14:35:17.520Z,100.00
2019-01-09T14:37:46.226Z,100.00
2019-01-09T14:40:19.704Z,100.00
2019-01-09T14:42:48.268Z,100.00
2019-01-09T14:45:17.646Z,100.00
2019-01-09T14:47:46.283Z,100.00
2019-01-09T14:50:17.753Z,100.00
2019-01-09T14:52:46.444Z,100.00
2019-01-09T14:55:15.471Z,100.00
2019-01-09T14:57:50.931Z,99.44
2019-01-09T15:00:27.401Z,100.00
2019-01-09T15:02:55.965Z,99.14
2019-01-09T15:05:24.691Z,97.75
2019-01-09T15:07:53.362Z,97.67
2019-01-09T15:10:27.091Z,96.96
2019-01-09T15:12:55.915Z,97.26
2019-01-09T15:15:24.592Z,94.87
2019-01-09T15:17:53.225Z,95.68
2019-01-09T15:20:21.860Z,94.22
2019-01-09T15:22:50.537Z,92.71
2019-01-09T15:25:19.480Z,95.35
2019-01-09T15:27:48.135Z,94.08
2019-01-09T15:30:25.394Z,94.80
2019-01-09T15:32:54.039Z,93.05
2019-01-09T15:35:22.668Z,92.53
2019-01-09T15:37:51.564Z,92.36
2019-01-09T15:40:25.953Z,91.18
2019-01-09T15:42:54.583Z,91.06
2019-01-09T15:45:23.266Z,91.50
2019-01-09T15:47:51.907Z,90.06
2019-01-09T15:50:22.650Z,90.83
2019-01-09T15:52:51.475Z,89.76
2019-01-09T15:55:20.295Z,89.95
2019-01-09T15:57:51.026Z,90.46
2019-01-09T16:00:22.610Z,91.43
2019-01-09T16:02:51.249Z,92.45
2019-01-09T16:05:19.882Z,93.14
2019-01-09T16:07:48.752Z,95.49
2019-01-09T16:10:19.976Z,96.22
2019-01-09T16:12:48.609Z,95.98
2019-01-09T16:15:18.389Z,96.26
2019-01-09T16:17:47.020Z,97.00
2019-01-09T16:20:20.631Z,95.83
2019-01-09T16:22:49.524Z,96.08
2019-01-09T16:25:18.246Z,96.99
2019-01-09T16:27:46.882Z,98.41
2019-01-09T16:30:18.935Z,99.74
2019-01-09T16:32:47.561Z,99.21
2019-01-09T16:35:16.201Z,99.57
2019-01-09T16:37:44.989Z,98.40
2019-01-09T16:40:23.044Z,98.31
2019-01-09T16:42:45.553Z,98.71
2019-01-09T16:45:15.338Z,98.51
2019-01-09T16:47:43.984Z,98.83
2019-01-09T16:50:15.794Z,99.36
2019-01-09T16:52:44.696Z,99.25
2019-01-09T16:55:13.416Z,99.96
2019-01-09T16:57:42.526Z,99.55
2019-01-09T17:00:16.803Z,96.53
2019-01-09T17:02:45.428Z,96.03
2019-01-09T17:05:14.335Z,96.82
2019-01-09T17:07:43.336Z,96.71
2019-01-09T17:10:14.911Z,96.48
2019-01-09T17:12:43.561Z,96.64
2019-01-09T17:15:15.133Z,97.50
2019-01-09T17:17:43.764Z,97.16
2019-01-09T17:20:18.102Z,94.91
2019-01-09T17:22:47.696Z,93.93
2019-01-09T17:25:16.220Z,93.54
2019-01-09T17:27:44.836Z,91.19
2019-01-09T17:30:19.335Z,91.67
2019-01-09T17:32:47.977Z,90.30
2019-01-09T17:35:16.595Z,91.19
2019-01-09T17:37:45.257Z,91.58
2019-01-09T17:40:18.592Z,90.97
2019-01-09T17:42:47.729Z,91.36
2019-01-09T17:45:16.557Z,91.01
2019-01-09T17:47:45.196Z,91.44
2019-01-09T17:50:22.588Z,91.98
2019-01-09T17:52:51.213Z,92.53
2019-01-09T17:55:19.834Z,93.03
2019-01-09T17:57:55.534Z,93.32
2019-01-09T18:00:35.619Z,94.60
2019-01-09T18:03:04.481Z,95.75
2019-01-09T18:05:33.122Z,96.02
2019-01-09T18:08:10.147Z,96.17
2019-01-09T18:10:32.132Z,96.57
2019-01-09T18:13:00.756Z,97.21
2019-01-09T18:15:29.376Z,97.26
2019-01-09T18:17:58.154Z,97.50
2019-01-09T18:20:26.784Z,97.75
2019-01-09T18:22:55.410Z,98.09
2019-01-09T18:25:26.375Z,98.54
2019-01-09T18:27:55.004Z,99.36
2019-01-09T18:30:27.299Z,100.00
2019-01-09T18:32:58.849Z,99.84
2019-01-09T18:35:36.031Z,100.00
2019-01-09T18:38:15.856Z,100.00
2019-01-09T18:40:48.957Z,100.00
2019-01-09T18:43:29.527Z,100.00
2019-01-09T18:46:01.075Z,100.00
2019-01-09T18:48:41.282Z,100.00
2019-01-09T18:51:29.568Z,100.00
2019-01-09T18:53:58.101Z,100.00
2019-01-09T18:56:26.746Z,100.00
2019-01-09T18:58:55.453Z,100.00
2019-01-09T19:01:24.502Z,100.00
2019-01-09T19:03:59.051Z,100.00
2019-01-09T19:06:35.151Z,100.00
2019-01-09T19:08:58.199Z,100.00
2019-01-09T19:11:26.756Z,100.00
2019-01-09T19:13:55.396Z,100.00
2019-01-09T19:16:23.991Z,100.00
2019-01-09T19:18:54.232Z,100.00
2019-01-09T19:21:23.251Z,100.00
2019-01-09T19:23:51.931Z,100.00
2019-01-09T19:26:20.567Z,100.00
2019-01-09T19:28:49.217Z,100.00
2019-01-09T19:31:18.120Z,100.00
2019-01-09T19:33:46.760Z,100.00
2019-01-09T19:36:15.404Z,100.00
2019-01-09T19:38:44.009Z,100.00
2019-01-09T19:41:17.208Z,100.00
2019-01-09T19:43:43.011Z,100.00
2019-01-09T19:46:11.679Z,100.00
2019-01-09T19:48:40.320Z,100.00
2019-01-09T19:51:17.330Z,100.00
2019-01-09T19:53:40.348Z,100.00
2019-01-09T19:56:09.034Z,100.00
2019-01-09T19:58:38.545Z,100.00
2019-01-09T20:01:07.229Z,100.00
2019-01-09T20:03:35.858Z,100.00
2019-01-09T20:06:05.199Z,100.00
2019-01-09T20:08:33.979Z,100.00
2019-01-09T20:11:02.768Z,100.00
2019-01-09T20:13:31.494Z,100.00
2019-01-09T20:16:00.246Z,100.00
2019-01-09T20:18:29.009Z,100.00
2019-01-09T20:20:57.636Z,100.00
2019-01-09T20:23:26.423Z,100.00
2019-01-09T20:25:55.076Z,100.00
2019-01-09T20:28:23.758Z,100.00
2019-01-09T20:30:52.446Z,100.00
2019-01-09T20:33:21.196Z,100.00
2019-01-09T20:35:49.762Z,100.00
2019-01-09T20:38:18.619Z,100.00
2019-01-09T20:40:47.264Z,100.00
2019-01-09T20:43:15.950Z,100.00
2019-01-09T20:45:44.584Z,100.00
2019-01-09T20:48:13.215Z,100.00
2019-01-09T20:50:41.861Z,100.00
2019-01-09T20:53:10.681Z,100.00
2019-01-09T20:55:39.190Z,100.00
2019-01-09T20:58:08.046Z,100.00
2019-01-09T21:00:36.691Z,100.00
2019-01-09T21:03:05.734Z,100.00
2019-01-09T21:05:39.466Z,100.00
2019-01-09T21:08:08.591Z,100.00
2019-01-09T21:10:37.196Z,100.00
2019-01-09T21:13:06.240Z,100.00
2019-01-09T21:15:35.447Z,100.00
2019-01-09T21:18:04.179Z,100.00
2019-01-09T21:20:32.829Z,100.00
2019-01-09T21:23:01.508Z,100.00
2019-01-09T21:25:30.151Z,100.00
2019-01-09T21:27:58.787Z,100.00
2019-01-09T21:30:27.460Z,100.00
2019-01-09T21:32:56.628Z,100.00
2019-01-09T21:35:25.252Z,100.00
2019-01-09T21:37:54.128Z,100.00
2019-01-09T21:40:27.974Z,100.00
2019-01-09T21:42:56.618Z,100.00
2019-01-09T21:45:25.626Z,100.00
2019-01-09T21:47:54.552Z,100.00
2019-01-09T21:50:25.369Z,100.00
2019-01-09T21:52:54.148Z,100.00
2019-01-09T21:55:23.088Z,100.00
2019-01-09T21:57:51.673Z,100.00
2019-01-09T22:00:25.529Z,100.00
2019-01-09T22:02:54.267Z,100.00
2019-01-09T22:05:23.887Z,100.00
2019-01-09T22:07:52.859Z,100.00
2019-01-09T22:10:24.245Z,100.00
2019-01-09T22:12:53.075Z,100.00
2019-01-09T22:15:28.184Z,100.00
2019-01-09T22:17:56.935Z,100.00
2019-01-09T22:20:25.605Z,100.00
2019-01-09T22:22:54.283Z,100.00
2019-01-09T22:25:23.181Z,100.00
2019-01-09T22:27:51.755Z,100.00
2019-01-09T22:30:25.674Z,100.00
2019-01-09T22:32:54.421Z,100.00
2019-01-09T22:35:23.264Z,100.00
2019-01-09T22:37:51.943Z,100.00
2019-01-09T22:40:21.768Z,100.00
2019-01-09T22:42:50.512Z,100.00
2019-01-09T22:45:19.597Z,100.00
2019-01-09T22:47:48.242Z,100.00
2019-01-09T22:50:19.285Z,100.00
2019-01-09T22:52:47.962Z,100.00
2019-01-09T22:55:16.600Z,100.00
2019-01-09T22:57:45.254Z,100.00
2019-01-09T23:00:19.404Z,100.00
2019-01-09T23:02:48.051Z,100.00
2019-01-09T23:05:16.787Z,100.00
2019-01-09T23:07:46.712Z,100.00
2019-01-09T23:10:15.578Z,100.00
2019-01-09T23:12:44.218Z,100.00
2019-01-09T23:15:12.996Z,100.00
2019-01-09T23:17:41.658Z,100.00
2019-01-09T23:20:13.110Z,100.00
2019-01-09T23:22:41.794Z,100.00
2019-01-09T23:25:10.531Z,100.00
2019-01-09T23:27:39.089Z,100.00
2019-01-09T23:30:12.006Z,100.00
2019-01-09T23:32:40.748Z,100.00
2019-01-09T23:35:11.602Z,100.00
2019-01-09T23:37:40.503Z,100.00
2019-01-09T23:40:11.946Z,100.00
2019-01-09T23:42:40.674Z,100.00
2019-01-09T23:45:11.338Z,100.00
2019-01-09T23:47:39.974Z,100.00
2019-01-09T23:50:10.519Z,100.00
2019-01-09T23:52:39.184Z,100.00
2019-01-09T23:55:10.355Z,100.00
2019-01-09T23:57:38.855Z,100.00
